sensor_id;sensor_type;location;lat;lon;timestamp;P1;durP1;ratioP1;P2;durP2;ratioP2
14768;SDS011;7476;49.404;11.152;2022-08-11T00:01:10;4.60;;;4.20;;
14768;SDS011;7476;49.404;11.152;2022-08-11T00:03:43;4.83;;;4.43;;
14768;SDS011;7476;49.404;11.152;2022-08-11T00:06:11;4.90;;;4.50;;
14768;SDS011;7476;49.404;11.152;2022-08-11T00:08:40;5.17;;;4.47;;
14768;SDS011;7476;49.404;11.152;2022-08-11T00:11:08;4.83;;;4.40;;
14768;SDS011;7476;49.404;11.152;2022-08-11T00:13:38;5.67;;;4.20;;
14768;SDS011;7476;49.404;11.152;2022-08-11T00:16:10;4.53;;;4.07;;
14768;SDS011;7476;49.404;11.152;2022-08-11T00:18:40;4.97;;;4.53;;
14768;SDS011;7476;49.404;11.152;2022-08-11T00:21:08;5.37;;;4.40;;
14768;SDS011;7476;49.404;11.152;2022-08-11T00:23:39;5.20;;;4.70;;
14768;SDS011;7476;49.404;11.152;2022-08-11T00:26:08;4.67;;;4.27;;
14768;SDS011;7476;49.404;11.152;2022-08-11T00:28:36;5.13;;;4.37;;
14768;SDS011;7476;49.404;11.152;2022-08-11T00:31:03;5.20;;;4.70;;
14768;SDS011;7476;49.404;11.152;2022-08-11T00:33:33;4.77;;;4.27;;
14768;SDS011;7476;49.404;11.152;2022-08-11T00:36:03;4.47;;;4.07;;
14768;SDS011;7476;49.404;11.152;2022-08-11T00:38:32;6.20;;;4.60;;
14768;SDS011;7476;49.404;11.152;2022-08-11T00:41:07;6.07;;;4.40;;
14768;SDS011;7476;49.404;11.152;2022-08-11T00:43:46;4.83;;;4.33;;
14768;SDS011;7476;49.404;11.152;2022-08-11T00:46:24;4.60;;;4.20;;
14768;SDS011;7476;49.404;11.152;2022-08-11T00:49:02;5.27;;;4.73;;
14768;SDS011;7476;49.404;11.152;2022-08-11T00:51:42;5.37;;;4.87;;
14768;SDS011;7476;49.404;11.152;2022-08-11T00:54:25;5.20;;;4.60;;
14768;SDS011;7476;49.404;11.152;2022-08-11T00:57:24;5.17;;;4.67;;
14768;SDS011;7476;49.404;11.152;2022-08-11T01:00:14;5.93;;;4.40;;
14768;SDS011;7476;49.404;11.152;2022-08-11T01:02:46;5.40;;;4.90;;
14768;SDS011;7476;49.404;11.152;2022-08-11T01:05:50;5.60;;;4.30;;
14768;SDS011;7476;49.404;11.152;2022-08-11T01:09:01;5.23;;;4.77;;
14768;SDS011;7476;49.404;11.152;2022-08-11T01:11:52;5.83;;;4.70;;
14768;SDS011;7476;49.404;11.152;2022-08-11T01:18:07;5.57;;;4.73;;
14768;SDS011;7476;49.404;11.152;2022-08-11T01:20:58;5.07;;;4.67;;
14768;SDS011;7476;49.404;11.152;2022-08-11T01:27:05;4.97;;;4.57;;
14768;SDS011;7476;49.404;11.152;2022-08-11T01:39:19;4.70;;;4.23;;
14768;SDS011;7476;49.404;11.152;2022-08-11T01:45:38;4.73;;;4.33;;
14768;SDS011;7476;49.404;11.152;2022-08-11T01:48:13;5.13;;;4.60;;
14768;SDS011;7476;49.404;11.152;2022-08-11T01:50:52;4.67;;;4.27;;
14768;SDS011;7476;49.404;11.152;2022-08-11T01:53:38;4.87;;;4.40;;
14768;SDS011;7476;49.404;11.152;2022-08-11T01:56:21;4.57;;;4.17;;
14768;SDS011;7476;49.404;11.152;2022-08-11T01:58:57;4.80;;;4.20;;
14768;SDS011;7476;49.404;11.152;2022-08-11T02:01:32;5.10;;;4.60;;
14768;SDS011;7476;49.404;11.152;2022-08-11T02:04:08;4.90;;;4.50;;
14768;SDS011;7476;49.404;11.152;2022-08-11T02:06:44;5.10;;;4.37;;
14768;SDS011;7476;49.404;11.152;2022-08-11T02:09:28;5.17;;;4.60;;
14768;SDS011;7476;49.404;11.152;2022-08-11T02:12:09;5.13;;;4.63;;
14768;SDS011;7476;49.404;11.152;2022-08-11T02:14:42;6.10;;;4.80;;
14768;SDS011;7476;49.404;11.152;2022-08-11T02:17:13;5.10;;;4.60;;
14768;SDS011;7476;49.404;11.152;2022-08-11T02:19:48;5.23;;;4.73;;
14768;SDS011;7476;49.404;11.152;2022-08-11T02:22:41;5.00;;;4.50;;
14768;SDS011;7476;49.404;11.152;2022-08-11T02:25:34;4.70;;;4.30;;
14768;SDS011;7476;49.404;11.152;2022-08-11T02:28:06;5.13;;;4.57;;
14768;SDS011;7476;49.404;11.152;2022-08-11T02:30:36;4.93;;;4.30;;
14768;SDS011;7476;49.404;11.152;2022-08-11T02:33:11;5.10;;;4.70;;
14768;SDS011;7476;49.404;11.152;2022-08-11T02:35:49;5.73;;;5.03;;
14768;SDS011;7476;49.404;11.152;2022-08-11T02:38:24;5.20;;;4.80;;
14768;SDS011;7476;49.404;11.152;2022-08-11T02:40:59;4.77;;;4.37;;
14768;SDS011;7476;49.404;11.152;2022-08-11T02:43:58;5.23;;;4.77;;
14768;SDS011;7476;49.404;11.152;2022-08-11T02:46:36;4.97;;;4.27;;
14768;SDS011;7476;49.404;11.152;2022-08-11T02:49:17;5.10;;;4.60;;
14768;SDS011;7476;49.404;11.152;2022-08-11T02:52:17;4.93;;;4.53;;
14768;SDS011;7476;49.404;11.152;2022-08-11T02:54:51;6.60;;;4.87;;
14768;SDS011;7476;49.404;11.152;2022-08-11T02:57:32;4.90;;;4.50;;
14768;SDS011;7476;49.404;11.152;2022-08-11T03:00:05;4.97;;;4.47;;
14768;SDS011;7476;49.404;11.152;2022-08-11T03:02:41;5.00;;;4.60;;
14768;SDS011;7476;49.404;11.152;2022-08-11T03:08:15;5.50;;;5.00;;
14768;SDS011;7476;49.404;11.152;2022-08-11T03:10:56;5.70;;;5.10;;
14768;SDS011;7476;49.404;11.152;2022-08-11T03:13:50;5.30;;;4.80;;
14768;SDS011;7476;49.404;11.152;2022-08-11T03:16:50;6.67;;;4.90;;
14768;SDS011;7476;49.404;11.152;2022-08-11T03:19:24;5.57;;;5.00;;
14768;SDS011;7476;49.404;11.152;2022-08-11T03:21:58;5.53;;;4.97;;
14768;SDS011;7476;49.404;11.152;2022-08-11T03:24:36;5.50;;;5.00;;
14768;SDS011;7476;49.404;11.152;2022-08-11T03:27:19;6.07;;;5.03;;
14768;SDS011;7476;49.404;11.152;2022-08-11T03:30:00;6.57;;;5.60;;
14768;SDS011;7476;49.404;11.152;2022-08-11T03:32:32;5.93;;;5.33;;
14768;SDS011;7476;49.404;11.152;2022-08-11T03:35:07;5.60;;;5.07;;
14768;SDS011;7476;49.404;11.152;2022-08-11T03:37:40;6.20;;;5.37;;
14768;SDS011;7476;49.404;11.152;2022-08-11T03:40:26;6.10;;;5.50;;
14768;SDS011;7476;49.404;11.152;2022-08-11T03:43:18;6.03;;;5.43;;
14768;SDS011;7476;49.404;11.152;2022-08-11T03:45:56;5.80;;;5.30;;
14768;SDS011;7476;49.404;11.152;2022-08-11T03:48:36;6.50;;;5.90;;
14768;SDS011;7476;49.404;11.152;2022-08-11T03:51:12;5.77;;;5.27;;
14768;SDS011;7476;49.404;11.152;2022-08-11T03:53:55;5.50;;;5.00;;
14768;SDS011;7476;49.404;11.152;2022-08-11T03:59:57;6.03;;;5.43;;
14768;SDS011;7476;49.404;11.152;2022-08-11T04:06:05;6.40;;;5.20;;
14768;SDS011;7476;49.404;11.152;2022-08-11T04:09:15;5.63;;;5.00;;
14768;SDS011;7476;49.404;11.152;2022-08-11T04:15:13;6.37;;;5.77;;
14768;SDS011;7476;49.404;11.152;2022-08-11T04:18:26;5.53;;;5.03;;
14768;SDS011;7476;49.404;11.152;2022-08-11T04:21:19;5.57;;;5.03;;
14768;SDS011;7476;49.404;11.152;2022-08-11T04:24:25;7.57;;;5.33;;
14768;SDS011;7476;49.404;11.152;2022-08-11T04:30:01;6.40;;;5.80;;
14768;SDS011;7476;49.404;11.152;2022-08-11T04:32:46;5.80;;;5.30;;
14768;SDS011;7476;49.404;11.152;2022-08-11T04:35:40;6.27;;;5.60;;
14768;SDS011;7476;49.404;11.152;2022-08-11T04:38:24;7.97;;;5.83;;
14768;SDS011;7476;49.404;11.152;2022-08-11T04:44:56;5.87;;;5.27;;
14768;SDS011;7476;49.404;11.152;2022-08-11T04:47:47;6.67;;;5.03;;
14768;SDS011;7476;49.404;11.152;2022-08-11T04:50:48;5.40;;;4.60;;
14768;SDS011;7476;49.404;11.152;2022-08-11T04:53:45;5.60;;;4.40;;
14768;SDS011;7476;49.404;11.152;2022-08-11T04:56:40;5.50;;;3.77;;
14768;SDS011;7476;49.404;11.152;2022-08-11T05:02:55;4.50;;;4.10;;
14768;SDS011;7476;49.404;11.152;2022-08-11T05:05:54;5.23;;;4.07;;
14768;SDS011;7476;49.404;11.152;2022-08-11T05:11:33;6.37;;;3.97;;
14768;SDS011;7476;49.404;11.152;2022-08-11T05:14:25;5.90;;;3.80;;
14768;SDS011;7476;49.404;11.152;2022-08-11T05:17:22;5.83;;;3.60;;
14768;SDS011;7476;49.404;11.152;2022-08-11T05:20:10;3.40;;;3.03;;
14768;SDS011;7476;49.404;11.152;2022-08-11T05:22:57;3.70;;;3.10;;
14768;SDS011;7476;49.404;11.152;2022-08-11T05:25:47;7.87;;;3.00;;
14768;SDS011;7476;49.404;11.152;2022-08-11T05:28:35;5.70;;;3.37;;
14768;SDS011;7476;49.404;11.152;2022-08-11T05:31:24;5.00;;;3.30;;
14768;SDS011;7476;49.404;11.152;2022-08-11T05:34:16;5.07;;;2.97;;
14768;SDS011;7476;49.404;11.152;2022-08-11T05:37:04;4.03;;;2.97;;
14768;SDS011;7476;49.404;11.152;2022-08-11T05:39:39;3.33;;;2.90;;
14768;SDS011;7476;49.404;11.152;2022-08-11T05:42:27;2.90;;;2.70;;
14768;SDS011;7476;49.404;11.152;2022-08-11T05:45:15;3.17;;;2.80;;
14768;SDS011;7476;49.404;11.152;2022-08-11T05:48:00;3.30;;;2.93;;
14768;SDS011;7476;49.404;11.152;2022-08-11T05:50:49;3.93;;;3.10;;
14768;SDS011;7476;49.404;11.152;2022-08-11T05:53:41;3.87;;;2.80;;
14768;SDS011;7476;49.404;11.152;2022-08-11T05:56:33;3.50;;;3.20;;
14768;SDS011;7476;49.404;11.152;2022-08-11T05:59:11;3.40;;;3.10;;
14768;SDS011;7476;49.404;11.152;2022-08-11T06:01:39;3.87;;;3.00;;
14768;SDS011;7476;49.404;11.152;2022-08-11T06:04:07;3.13;;;2.70;;
14768;SDS011;7476;49.404;11.152;2022-08-11T06:06:49;3.10;;;2.80;;
14768;SDS011;7476;49.404;11.152;2022-08-11T06:09:22;3.10;;;2.90;;
14768;SDS011;7476;49.404;11.152;2022-08-11T06:11:52;3.40;;;2.90;;
14768;SDS011;7476;49.404;11.152;2022-08-11T06:14:21;4.83;;;3.00;;
14768;SDS011;7476;49.404;11.152;2022-08-11T06:16:50;5.77;;;3.47;;
14768;SDS011;7476;49.404;11.152;2022-08-11T06:19:23;4.00;;;2.77;;
14768;SDS011;7476;49.404;11.152;2022-08-11T06:21:58;3.70;;;2.90;;
14768;SDS011;7476;49.404;11.152;2022-08-11T06:24:27;2.97;;;2.73;;
14768;SDS011;7476;49.404;11.152;2022-08-11T06:26:58;3.30;;;3.00;;
14768;SDS011;7476;49.404;11.152;2022-08-11T06:29:26;3.40;;;3.07;;
14768;SDS011;7476;49.404;11.152;2022-08-11T06:31:55;3.50;;;3.20;;
14768;SDS011;7476;49.404;11.152;2022-08-11T06:34:27;3.10;;;2.90;;
14768;SDS011;7476;49.404;11.152;2022-08-11T06:37:12;4.60;;;2.93;;
14768;SDS011;7476;49.404;11.152;2022-08-11T06:39:44;3.37;;;3.00;;
14768;SDS011;7476;49.404;11.152;2022-08-11T06:42:23;5.87;;;3.13;;
14768;SDS011;7476;49.404;11.152;2022-08-11T06:45:12;4.30;;;3.10;;
14768;SDS011;7476;49.404;11.152;2022-08-11T06:47:49;3.40;;;2.67;;
14768;SDS011;7476;49.404;11.152;2022-08-11T06:50:18;4.57;;;3.00;;
14768;SDS011;7476;49.404;11.152;2022-08-11T06:53:01;4.30;;;3.00;;
14768;SDS011;7476;49.404;11.152;2022-08-11T06:55:30;3.40;;;3.10;;
14768;SDS011;7476;49.404;11.152;2022-08-11T06:58:19;5.30;;;2.73;;
14768;SDS011;7476;49.404;11.152;2022-08-11T07:01:06;3.10;;;2.80;;
14768;SDS011;7476;49.404;11.152;2022-08-11T07:03:38;3.77;;;3.20;;
14768;SDS011;7476;49.404;11.152;2022-08-11T07:06:13;4.67;;;2.97;;
14768;SDS011;7476;49.404;11.152;2022-08-11T07:09:03;4.70;;;2.77;;
14768;SDS011;7476;49.404;11.152;2022-08-11T07:15:17;4.77;;;3.17;;
14768;SDS011;7476;49.404;11.152;2022-08-11T07:18:02;3.40;;;2.73;;
14768;SDS011;7476;49.404;11.152;2022-08-11T07:20:49;3.30;;;2.93;;
14768;SDS011;7476;49.404;11.152;2022-08-11T07:23:34;3.07;;;2.57;;
14768;SDS011;7476;49.404;11.152;2022-08-11T07:26:21;5.93;;;2.97;;
14768;SDS011;7476;49.404;11.152;2022-08-11T07:29:09;3.00;;;2.70;;
14768;SDS011;7476;49.404;11.152;2022-08-11T07:31:40;3.70;;;2.77;;
14768;SDS011;7476;49.404;11.152;2022-08-11T07:34:15;2.97;;;2.77;;
14768;SDS011;7476;49.404;11.152;2022-08-11T07:36:48;3.00;;;2.80;;
14768;SDS011;7476;49.404;11.152;2022-08-11T07:39:18;4.80;;;2.80;;
14768;SDS011;7476;49.404;11.152;2022-08-11T07:41:47;4.23;;;2.73;;
14768;SDS011;7476;49.404;11.152;2022-08-11T07:44:16;4.80;;;2.90;;
14768;SDS011;7476;49.404;11.152;2022-08-11T07:46:46;4.10;;;3.00;;
14768;SDS011;7476;49.404;11.152;2022-08-11T07:49:33;3.50;;;2.80;;
14768;SDS011;7476;49.404;11.152;2022-08-11T07:52:19;3.17;;;2.50;;
14768;SDS011;7476;49.404;11.152;2022-08-11T07:54:54;3.47;;;2.60;;
14768;SDS011;7476;49.404;11.152;2022-08-11T07:57:22;3.37;;;2.67;;
14768;SDS011;7476;49.404;11.152;2022-08-11T08:00:07;4.17;;;2.63;;
14768;SDS011;7476;49.404;11.152;2022-08-11T08:02:54;4.93;;;2.77;;
14768;SDS011;7476;49.404;11.152;2022-08-11T08:05:39;3.27;;;2.97;;
14768;SDS011;7476;49.404;11.152;2022-08-11T08:08:24;4.43;;;2.90;;
14768;SDS011;7476;49.404;11.152;2022-08-11T08:11:09;3.67;;;2.53;;
14768;SDS011;7476;49.404;11.152;2022-08-11T08:13:54;3.77;;;2.50;;
14768;SDS011;7476;49.404;11.152;2022-08-11T08:16:39;2.50;;;2.33;;
14768;SDS011;7476;49.404;11.152;2022-08-11T08:19:26;2.90;;;2.70;;
14768;SDS011;7476;49.404;11.152;2022-08-11T08:21:54;2.73;;;2.50;;
14768;SDS011;7476;49.404;11.152;2022-08-11T08:24:21;3.63;;;2.30;;
14768;SDS011;7476;49.404;11.152;2022-08-11T08:26:48;2.77;;;2.43;;
14768;SDS011;7476;49.404;11.152;2022-08-11T08:29:24;3.60;;;2.33;;
14768;SDS011;7476;49.404;11.152;2022-08-11T08:32:10;2.93;;;2.60;;
14768;SDS011;7476;49.404;11.152;2022-08-11T08:34:39;4.70;;;2.50;;
14768;SDS011;7476;49.404;11.152;2022-08-11T08:37:06;4.27;;;2.43;;
14768;SDS011;7476;49.404;11.152;2022-08-11T08:39:33;3.37;;;2.60;;
14768;SDS011;7476;49.404;11.152;2022-08-11T08:42:03;3.13;;;2.80;;
14768;SDS011;7476;49.404;11.152;2022-08-11T08:44:35;3.83;;;2.50;;
14768;SDS011;7476;49.404;11.152;2022-08-11T08:47:06;4.10;;;2.40;;
14768;SDS011;7476;49.404;11.152;2022-08-11T08:49:40;2.97;;;2.63;;
14768;SDS011;7476;49.404;11.152;2022-08-11T08:52:13;2.50;;;2.30;;
14768;SDS011;7476;49.404;11.152;2022-08-11T08:54:42;4.03;;;2.40;;
14768;SDS011;7476;49.404;11.152;2022-08-11T08:57:10;2.70;;;2.50;;
14768;SDS011;7476;49.404;11.152;2022-08-11T08:59:39;3.00;;;2.70;;
14768;SDS011;7476;49.404;11.152;2022-08-11T09:02:07;3.53;;;2.77;;
14768;SDS011;7476;49.404;11.152;2022-08-11T09:04:37;3.77;;;2.70;;
14768;SDS011;7476;49.404;11.152;2022-08-11T09:07:08;3.60;;;2.43;;
14768;SDS011;7476;49.404;11.152;2022-08-11T09:09:37;2.80;;;2.47;;
14768;SDS011;7476;49.404;11.152;2022-08-11T09:12:07;2.67;;;2.43;;
14768;SDS011;7476;49.404;11.152;2022-08-11T09:14:36;5.27;;;2.57;;
14768;SDS011;7476;49.404;11.152;2022-08-11T09:17:22;4.53;;;2.67;;
14768;SDS011;7476;49.404;11.152;2022-08-11T09:19:53;3.30;;;2.40;;
14768;SDS011;7476;49.404;11.152;2022-08-11T09:22:24;2.67;;;2.30;;
14768;SDS011;7476;49.404;11.152;2022-08-11T09:25:09;3.73;;;2.80;;
14768;SDS011;7476;49.404;11.152;2022-08-11T09:27:53;3.00;;;2.43;;
14768;SDS011;7476;49.404;11.152;2022-08-11T09:30:21;3.77;;;2.53;;
14768;SDS011;7476;49.404;11.152;2022-08-11T09:32:50;3.47;;;2.67;;
14768;SDS011;7476;49.404;11.152;2022-08-11T09:35:23;4.80;;;2.73;;
14768;SDS011;7476;49.404;11.152;2022-08-11T09:37:51;3.77;;;2.43;;
14768;SDS011;7476;49.404;11.152;2022-08-11T09:40:36;2.93;;;2.63;;
14768;SDS011;7476;49.404;11.152;2022-08-11T09:43:04;3.97;;;2.57;;
14768;SDS011;7476;49.404;11.152;2022-08-11T09:45:52;3.03;;;2.50;;
14768;SDS011;7476;49.404;11.152;2022-08-11T09:48:21;3.00;;;2.40;;
14768;SDS011;7476;49.404;11.152;2022-08-11T09:50:51;5.70;;;2.70;;
14768;SDS011;7476;49.404;11.152;2022-08-11T09:53:20;2.87;;;2.57;;
14768;SDS011;7476;49.404;11.152;2022-08-11T09:55:50;3.20;;;2.20;;
14768;SDS011;7476;49.404;11.152;2022-08-11T09:58:17;4.13;;;2.33;;
14768;SDS011;7476;49.404;11.152;2022-08-11T10:00:44;3.17;;;2.30;;
14768;SDS011;7476;49.404;11.152;2022-08-11T10:03:16;2.97;;;2.10;;
14768;SDS011;7476;49.404;11.152;2022-08-11T10:05:47;5.20;;;2.37;;
14768;SDS011;7476;49.404;11.152;2022-08-11T10:08:34;3.00;;;2.13;;
14768;SDS011;7476;49.404;11.152;2022-08-11T10:11:04;5.03;;;2.33;;
14768;SDS011;7476;49.404;11.152;2022-08-11T10:13:34;3.00;;;2.53;;
14768;SDS011;7476;49.404;11.152;2022-08-11T10:16:20;2.80;;;2.37;;
14768;SDS011;7476;49.404;11.152;2022-08-11T10:18:49;2.40;;;2.20;;
14768;SDS011;7476;49.404;11.152;2022-08-11T10:21:21;2.97;;;2.30;;
14768;SDS011;7476;49.404;11.152;2022-08-11T10:23:54;2.40;;;2.20;;
14768;SDS011;7476;49.404;11.152;2022-08-11T10:26:40;3.87;;;2.00;;
14768;SDS011;7476;49.404;11.152;2022-08-11T10:29:19;4.43;;;2.53;;
14768;SDS011;7476;49.404;11.152;2022-08-11T10:32:05;3.47;;;2.57;;
14768;SDS011;7476;49.404;11.152;2022-08-11T10:34:51;3.20;;;2.10;;
14768;SDS011;7476;49.404;11.152;2022-08-11T10:37:20;2.20;;;2.00;;
14768;SDS011;7476;49.404;11.152;2022-08-11T10:39:50;2.73;;;2.30;;
14768;SDS011;7476;49.404;11.152;2022-08-11T10:42:20;3.67;;;2.40;;
14768;SDS011;7476;49.404;11.152;2022-08-11T10:45:06;2.93;;;2.13;;
14768;SDS011;7476;49.404;11.152;2022-08-11T10:47:54;4.40;;;2.40;;
14768;SDS011;7476;49.404;11.152;2022-08-11T10:50:21;2.97;;;2.23;;
14768;SDS011;7476;49.404;11.152;2022-08-11T10:53:06;4.97;;;2.37;;
14768;SDS011;7476;49.404;11.152;2022-08-11T10:55:53;3.40;;;2.40;;
14768;SDS011;7476;49.404;11.152;2022-08-11T10:58:38;2.37;;;2.17;;
14768;SDS011;7476;49.404;11.152;2022-08-11T11:01:13;2.80;;;2.20;;
14768;SDS011;7476;49.404;11.152;2022-08-11T11:03:41;2.20;;;1.97;;
14768;SDS011;7476;49.404;11.152;2022-08-11T11:06:11;4.20;;;2.10;;
14768;SDS011;7476;49.404;11.152;2022-08-11T11:08:50;2.43;;;2.00;;
14768;SDS011;7476;49.404;11.152;2022-08-11T11:11:24;4.00;;;2.47;;
14768;SDS011;7476;49.404;11.152;2022-08-11T11:14:14;2.20;;;2.00;;
14768;SDS011;7476;49.404;11.152;2022-08-11T11:17:00;4.20;;;2.50;;
14768;SDS011;7476;49.404;11.152;2022-08-11T11:19:48;2.47;;;2.13;;
14768;SDS011;7476;49.404;11.152;2022-08-11T11:22:18;3.17;;;2.30;;
14768;SDS011;7476;49.404;11.152;2022-08-11T11:25:11;2.90;;;2.00;;
14768;SDS011;7476;49.404;11.152;2022-08-11T11:27:50;2.40;;;2.13;;
14768;SDS011;7476;49.404;11.152;2022-08-11T11:30:31;3.95;;;2.10;;
14768;SDS011;7476;49.404;11.152;2022-08-11T11:33:03;2.72;;;1.90;;
14768;SDS011;7476;49.404;11.152;2022-08-11T11:35:40;2.63;;;1.90;;
14768;SDS011;7476;49.404;11.152;2022-08-11T11:38:17;2.33;;;2.10;;
14768;SDS011;7476;49.404;11.152;2022-08-11T11:40:44;3.55;;;2.03;;
14768;SDS011;7476;49.404;11.152;2022-08-11T11:43:35;2.72;;;1.90;;
14768;SDS011;7476;49.404;11.152;2022-08-11T11:46:03;2.22;;;2.03;;
14768;SDS011;7476;49.404;11.152;2022-08-11T11:48:31;3.15;;;1.90;;
14768;SDS011;7476;49.404;11.152;2022-08-11T11:51:00;4.80;;;2.20;;
14768;SDS011;7476;49.404;11.152;2022-08-11T11:53:27;2.83;;;2.25;;
14768;SDS011;7476;49.404;11.152;2022-08-11T11:55:54;2.88;;;2.10;;
14768;SDS011;7476;49.404;11.152;2022-08-11T11:58:22;3.65;;;1.98;;
14768;SDS011;7476;49.404;11.152;2022-08-11T12:01:08;2.10;;;1.90;;
14768;SDS011;7476;49.404;11.152;2022-08-11T12:03:43;2.72;;;2.10;;
14768;SDS011;7476;49.404;11.152;2022-08-11T12:06:12;4.47;;;2.10;;
14768;SDS011;7476;49.404;11.152;2022-08-11T12:08:40;4.53;;;1.95;;
14768;SDS011;7476;49.404;11.152;2022-08-11T12:11:09;3.35;;;2.20;;
14768;SDS011;7476;49.404;11.152;2022-08-11T12:13:55;2.80;;;2.10;;
14768;SDS011;7476;49.404;11.152;2022-08-11T12:16:26;2.10;;;2.00;;
14768;SDS011;7476;49.404;11.152;2022-08-11T12:18:54;2.63;;;2.00;;
14768;SDS011;7476;49.404;11.152;2022-08-11T12:21:23;2.72;;;2.15;;
14768;SDS011;7476;49.404;11.152;2022-08-11T12:23:52;3.88;;;2.15;;
14768;SDS011;7476;49.404;11.152;2022-08-11T12:26:38;2.92;;;2.20;;
14768;SDS011;7476;49.404;11.152;2022-08-11T12:29:23;4.97;;;2.15;;
14768;SDS011;7476;49.404;11.152;2022-08-11T12:31:53;2.42;;;2.00;;
14768;SDS011;7476;49.404;11.152;2022-08-11T12:34:22;3.15;;;2.00;;
14768;SDS011;7476;49.404;11.152;2022-08-11T12:36:54;3.42;;;2.10;;
14768;SDS011;7476;49.404;11.152;2022-08-11T12:39:24;4.40;;;2.20;;
14768;SDS011;7476;49.404;11.152;2022-08-11T12:42:08;3.58;;;1.98;;
14768;SDS011;7476;49.404;11.152;2022-08-11T12:44:54;3.08;;;2.10;;
14768;SDS011;7476;49.404;11.152;2022-08-11T12:47:43;2.90;;;2.05;;
14768;SDS011;7476;49.404;11.152;2022-08-11T12:50:31;2.17;;;1.98;;
14768;SDS011;7476;49.404;11.152;2022-08-11T12:53:18;4.07;;;1.90;;
14768;SDS011;7476;49.404;11.152;2022-08-11T12:55:49;3.05;;;2.15;;
14768;SDS011;7476;49.404;11.152;2022-08-11T12:58:35;3.05;;;2.03;;
14768;SDS011;7476;49.404;11.152;2022-08-11T13:01:05;2.60;;;1.85;;
14768;SDS011;7476;49.404;11.152;2022-08-11T13:03:51;2.13;;;1.90;;
14768;SDS011;7476;49.404;11.152;2022-08-11T13:06:36;2.58;;;2.00;;
14768;SDS011;7476;49.404;11.152;2022-08-11T13:09:04;2.13;;;1.92;;
14768;SDS011;7476;49.404;11.152;2022-08-11T13:11:32;2.85;;;1.88;;
14768;SDS011;7476;49.404;11.152;2022-08-11T13:14:17;1.98;;;1.65;;
14768;SDS011;7476;49.404;11.152;2022-08-11T13:16:44;2.38;;;1.80;;
14768;SDS011;7476;49.404;11.152;2022-08-11T13:19:31;2.15;;;1.80;;
14768;SDS011;7476;49.404;11.152;2022-08-11T13:21:59;2.03;;;1.88;;
14768;SDS011;7476;49.404;11.152;2022-08-11T13:24:29;4.15;;;2.03;;
14768;SDS011;7476;49.404;11.152;2022-08-11T13:26:58;1.92;;;1.83;;
14768;SDS011;7476;49.404;11.152;2022-08-11T13:29:26;2.05;;;1.80;;
14768;SDS011;7476;49.404;11.152;2022-08-11T13:31:55;2.22;;;1.90;;
14768;SDS011;7476;49.404;11.152;2022-08-11T13:34:23;5.03;;;2.20;;
14768;SDS011;7476;49.404;11.152;2022-08-11T13:36:53;2.13;;;1.92;;
14768;SDS011;7476;49.404;11.152;2022-08-11T13:39:23;2.42;;;2.20;;
14768;SDS011;7476;49.404;11.152;2022-08-11T13:41:52;2.70;;;2.10;;
14768;SDS011;7476;49.404;11.152;2022-08-11T13:44:20;3.22;;;2.10;;
14768;SDS011;7476;49.404;11.152;2022-08-11T13:46:51;2.38;;;2.00;;
14768;SDS011;7476;49.404;11.152;2022-08-11T13:49:19;2.97;;;2.05;;
14768;SDS011;7476;49.404;11.152;2022-08-11T13:51:46;5.00;;;2.20;;
14768;SDS011;7476;49.404;11.152;2022-08-11T13:54:16;4.65;;;2.30;;
14768;SDS011;7476;49.404;11.152;2022-08-11T13:56:46;3.75;;;2.10;;
14768;SDS011;7476;49.404;11.152;2022-08-11T13:59:17;3.67;;;2.10;;
14768;SDS011;7476;49.404;11.152;2022-08-11T14:01:47;2.17;;;1.98;;
14768;SDS011;7476;49.404;11.152;2022-08-11T14:04:19;2.42;;;1.90;;
14768;SDS011;7476;49.404;11.152;2022-08-11T14:06:52;2.67;;;2.00;;
14768;SDS011;7476;49.404;11.152;2022-08-11T14:09:25;2.13;;;1.90;;
14768;SDS011;7476;49.404;11.152;2022-08-11T14:11:55;2.45;;;2.08;;
14768;SDS011;7476;49.404;11.152;2022-08-11T14:14:42;1.75;;;1.65;;
14768;SDS011;7476;49.404;11.152;2022-08-11T14:17:16;2.85;;;1.88;;
14768;SDS011;7476;49.404;11.152;2022-08-11T14:19:46;2.05;;;1.80;;
14768;SDS011;7476;49.404;11.152;2022-08-11T14:22:16;2.60;;;1.98;;
14768;SDS011;7476;49.404;11.152;2022-08-11T14:24:47;2.13;;;1.80;;
14768;SDS011;7476;49.404;11.152;2022-08-11T14:27:14;2.78;;;1.98;;
14768;SDS011;7476;49.404;11.152;2022-08-11T14:29:43;3.97;;;2.05;;
14768;SDS011;7476;49.404;11.152;2022-08-11T14:32:11;3.15;;;2.10;;
14768;SDS011;7476;49.404;11.152;2022-08-11T14:34:40;2.60;;;1.95;;
14768;SDS011;7476;49.404;11.152;2022-08-11T14:37:10;5.25;;;2.00;;
14768;SDS011;7476;49.404;11.152;2022-08-11T14:39:39;2.80;;;1.90;;
14768;SDS011;7476;49.404;11.152;2022-08-11T14:42:09;2.47;;;2.00;;
14768;SDS011;7476;49.404;11.152;2022-08-11T14:44:58;2.28;;;2.03;;
14768;SDS011;7476;49.404;11.152;2022-08-11T14:47:46;2.20;;;2.00;;
14768;SDS011;7476;49.404;11.152;2022-08-11T14:50:15;3.45;;;2.13;;
14768;SDS011;7476;49.404;11.152;2022-08-11T14:52:48;2.45;;;1.90;;
14768;SDS011;7476;49.404;11.152;2022-08-11T14:55:19;3.38;;;1.92;;
14768;SDS011;7476;49.404;11.152;2022-08-11T14:58:05;2.38;;;1.80;;
14768;SDS011;7476;49.404;11.152;2022-08-11T15:00:34;3.78;;;1.88;;
14768;SDS011;7476;49.404;11.152;2022-08-11T15:03:02;2.35;;;2.15;;
14768;SDS011;7476;49.404;11.152;2022-08-11T15:05:35;3.60;;;2.03;;
14768;SDS011;7476;49.404;11.152;2022-08-11T15:08:03;4.53;;;2.15;;
14768;SDS011;7476;49.404;11.152;2022-08-11T15:10:30;2.40;;;1.88;;
14768;SDS011;7476;49.404;11.152;2022-08-11T15:12:58;2.80;;;2.25;;
14768;SDS011;7476;49.404;11.152;2022-08-11T15:15:27;2.30;;;2.10;;
14768;SDS011;7476;49.404;11.152;2022-08-11T15:18:12;3.03;;;2.30;;
14768;SDS011;7476;49.404;11.152;2022-08-11T15:20:40;4.90;;;2.13;;
14768;SDS011;7476;49.404;11.152;2022-08-11T15:23:25;2.28;;;2.03;;
14768;SDS011;7476;49.404;11.152;2022-08-11T15:26:11;4.15;;;2.03;;
14768;SDS011;7476;49.404;11.152;2022-08-11T15:28:41;2.42;;;2.00;;
14768;SDS011;7476;49.404;11.152;2022-08-11T15:31:30;3.88;;;2.05;;
14768;SDS011;7476;49.404;11.152;2022-08-11T15:34:16;3.47;;;2.15;;
14768;SDS011;7476;49.404;11.152;2022-08-11T15:37:05;2.42;;;2.03;;
14768;SDS011;7476;49.404;11.152;2022-08-11T15:39:52;3.22;;;1.90;;
14768;SDS011;7476;49.404;11.152;2022-08-11T15:42:44;3.10;;;2.00;;
14768;SDS011;7476;49.404;11.152;2022-08-11T15:45:32;3.50;;;1.80;;
14768;SDS011;7476;49.404;11.152;2022-08-11T15:48:16;2.20;;;2.00;;
14768;SDS011;7476;49.404;11.152;2022-08-11T15:50:47;2.72;;;1.90;;
14768;SDS011;7476;49.404;11.152;2022-08-11T15:53:19;4.40;;;2.10;;
14768;SDS011;7476;49.404;11.152;2022-08-11T15:55:52;3.55;;;2.10;;
14768;SDS011;7476;49.404;11.152;2022-08-11T15:58:20;3.30;;;2.00;;
14768;SDS011;7476;49.404;11.152;2022-08-11T16:01:08;2.45;;;1.88;;
14768;SDS011;7476;49.404;11.152;2022-08-11T16:03:56;2.40;;;1.90;;
14768;SDS011;7476;49.404;11.152;2022-08-11T16:06:48;3.08;;;1.95;;
14768;SDS011;7476;49.404;11.152;2022-08-11T16:09:20;2.53;;;1.80;;
14768;SDS011;7476;49.404;11.152;2022-08-11T16:11:51;3.00;;;2.10;;
14768;SDS011;7476;49.404;11.152;2022-08-11T16:14:19;4.63;;;1.83;;
14768;SDS011;7476;49.404;11.152;2022-08-11T16:17:08;2.50;;;2.08;;
14768;SDS011;7476;49.404;11.152;2022-08-11T16:19:38;3.90;;;2.08;;
14768;SDS011;7476;49.404;11.152;2022-08-11T16:22:08;2.33;;;2.00;;
14768;SDS011;7476;49.404;11.152;2022-08-11T16:24:39;3.22;;;2.10;;
14768;SDS011;7476;49.404;11.152;2022-08-11T16:27:09;2.60;;;2.00;;
14768;SDS011;7476;49.404;11.152;2022-08-11T16:29:39;3.08;;;2.00;;
14768;SDS011;7476;49.404;11.152;2022-08-11T16:32:08;2.38;;;1.88;;
14768;SDS011;7476;49.404;11.152;2022-08-11T16:34:47;2.58;;;1.90;;
14768;SDS011;7476;49.404;11.152;2022-08-11T16:37:36;2.30;;;2.10;;
14768;SDS011;7476;49.404;11.152;2022-08-11T16:40:21;3.13;;;2.10;;